Time;durP1;ratioP1;P1;durP2;ratioP2;P2;SDS_P1;SDS_P2;PMS_P1;PMS_P2;Temp;Humidity;BMP_temperature;BMP_pressure;BME280_temperature;BME280_humidity;BME280_pressure;Samples;Min_cycle;Max_cycle;Signal;HPM_P1;HPM_P2
2022/02/21 00:01:12;;;;;;;12.53;3.23;;;7.50;91.80;;;;;;5037848;28;20172;-92
2022/02/21 00:03:38;;;;;;;10.77;2.97;;;7.40;91.50;;;;;;5038250;28;20179;-92
2022/02/21 00:06:03;;;;;;;11.57;2.93;;;7.30;90.60;;;;;;5037584;28;20179;-92
2022/02/21 00:08:29;;;;;;;9.70;2.80;;;7.20;90.70;;;;;;5038671;28;20199;-91
2022/02/21 00:10:54;;;;;;;7.07;2.90;;;7.20;90.40;;;;;;5037390;28;20224;-91
2022/02/21 00:13:20;;;;;;;8.90;3.07;;;7.20;90.40;;;;;;5037094;28;20195;-92
2022/02/21 00:15:46;;;;;;;15.43;4.17;;;7.10;90.40;;;;;;5037316;28;20209;-91
2022/02/21 00:18:11;;;;;;;8.73;3.40;;;7.10;90.80;;;;;;5037057;28;20207;-92
2022/02/21 00:20:37;;;;;;;5.60;2.30;;;7.00;90.70;;;;;;5037070;28;20180;-92
2022/02/21 00:23:03;;;;;;;2.67;2.20;;;6.90;90.50;;;;;;5037322;28;20646;-92
2022/02/21 00:25:29;;;;;;;1.93;1.50;;;6.90;89.90;;;;;;5037115;28;20174;-92
2022/02/21 00:27:55;;;;;;;2.80;1.90;;;6.70;89.50;;;;;;5037059;28;20200;-91
2022/02/21 00:30:20;;;;;;;6.07;2.20;;;6.70;89.40;;;;;;5037464;28;20321;-92
2022/02/21 00:32:46;;;;;;;7.57;2.10;;;6.60;90.20;;;;;;5037065;28;20550;-92
2022/02/21 00:35:12;;;;;;;3.67;2.40;;;6.50;90.30;;;;;;5037360;28;20212;-91
2022/02/21 00:37:37;;;;;;;4.53;2.63;;;6.50;90.30;;;;;;5037038;28;20677;-92
2022/02/21 00:40:03;;;;;;;4.87;2.13;;;6.50;90.80;;;;;;5036899;28;20210;-92
2022/02/21 00:42:29;;;;;;;4.00;2.40;;;6.30;90.70;;;;;;5036706;28;20182;-92
2022/02/21 00:44:59;;;;;;;4.47;2.47;;;6.30;90.60;;;;;;5036668;28;20226;-92
2022/02/21 00:47:28;;;;;;;7.10;3.00;;;6.30;90.80;;;;;;5037015;28;20676;-92
2022/02/21 00:49:55;;;;;;;4.27;2.27;;;6.30;91.20;;;;;;5037512;28;20182;-91
2022/02/21 00:52:21;;;;;;;2.77;2.40;;;6.20;90.80;;;;;;5036682;28;20183;-92
2022/02/21 00:54:47;;;;;;;4.20;2.00;;;6.20;90.90;;;;;;5036709;28;20238;-92
2022/02/21 00:57:12;;;;;;;4.50;2.67;;;6.20;91.10;;;;;;5036915;28;20712;-91
2022/02/21 00:59:38;;;;;;;2.30;2.00;;;6.20;91.30;;;;;;5036635;28;20184;-91
2022/02/21 01:02:04;;;;;;;2.13;1.90;;;6.20;91.10;;;;;;5036353;28;20254;-92
2022/02/21 01:04:29;;;;;;;4.43;2.50;;;6.30;91.20;;;;;;5036405;28;20532;-92
2022/02/21 01:06:55;;;;;;;6.40;2.07;;;6.30;91.10;;;;;;5036470;28;20183;-92
2022/02/21 01:09:22;;;;;;;5.37;2.70;;;6.30;91.00;;;;;;5036257;28;20179;-92
2022/02/21 01:11:47;;;;;;;5.00;1.87;;;6.30;91.10;;;;;;5037006;28;20180;-91
2022/02/21 01:14:13;;;;;;;3.00;1.87;;;6.40;91.00;;;;;;5036135;28;20206;-91
2022/02/21 01:16:38;;;;;;;2.57;1.90;;;6.40;90.80;;;;;;5036105;28;20292;-91
2022/02/21 01:19:04;;;;;;;3.13;2.37;;;6.50;90.90;;;;;;5036070;28;20252;-90
2022/02/21 01:21:31;;;;;;;1.80;1.70;;;6.40;91.10;;;;;;5036039;28;20176;-91
2022/02/21 01:23:57;;;;;;;3.40;2.13;;;6.50;90.70;;;;;;5037035;28;20185;-91
2022/02/21 01:26:22;;;;;;;4.23;2.00;;;6.40;91.20;;;;;;5035641;28;20183;-91
2022/02/21 01:28:48;;;;;;;6.07;2.10;;;6.30;91.60;;;;;;5036208;28;20207;-91
2022/02/21 01:31:14;;;;;;;6.80;2.47;;;6.20;90.60;;;;;;5035653;28;20297;-92
2022/02/21 01:33:40;;;;;;;5.83;2.50;;;6.10;90.50;;;;;;5036022;28;20209;-91
2022/02/21 01:36:05;;;;;;;6.80;2.90;;;6.00;91.10;;;;;;5036380;28;20205;-92
2022/02/21 01:38:31;;;;;;;4.93;2.67;;;5.80;91.20;;;;;;5036137;28;20199;-91
2022/02/21 01:40:57;;;;;;;12.67;5.40;;;5.70;91.10;;;;;;5036264;28;20174;-91
2022/02/21 01:43:22;;;;;;;11.33;2.80;;;5.70;91.20;;;;;;5036465;28;20676;-92
2022/02/21 01:45:48;;;;;;;9.73;3.23;;;5.60;90.90;;;;;;5035848;28;20749;-91
2022/02/21 01:48:13;;;;;;;12.20;4.50;;;5.50;90.80;;;;;;5036143;28;20209;-92
2022/02/21 01:50:39;;;;;;;11.37;3.60;;;5.50;91.10;;;;;;5035813;28;20249;-92
2022/02/21 01:53:05;;;;;;;13.10;4.97;;;5.40;90.80;;;;;;5035868;28;20206;-93
2022/02/21 01:55:31;;;;;;;5.97;2.57;;;5.30;90.80;;;;;;5037174;28;20205;-92
2022/02/21 01:57:56;;;;;;;12.00;3.00;;;5.30;90.70;;;;;;5036783;28;20221;-93
2022/02/21 02:00:22;;;;;;;6.63;3.13;;;5.20;90.90;;;;;;5036186;28;20176;-92
2022/02/21 02:02:47;;;;;;;9.03;3.77;;;5.20;91.10;;;;;;5036492;28;20189;-93
2022/02/21 02:05:14;;;;;;;12.00;4.90;;;5.10;91.40;;;;;;5036733;28;20202;-92
2022/02/21 02:07:41;;;;;;;12.03;4.40;;;5.10;91.60;;;;;;5037282;28;20578;-93
2022/02/21 02:10:07;;;;;;;14.43;3.97;;;5.10;91.70;;;;;;5036503;28;20209;-92
2022/02/21 02:12:33;;;;;;;15.90;4.53;;;5.10;91.80;;;;;;5035809;28;20720;-93
2022/02/21 02:14:59;;;;;;;13.37;3.23;;;5.10;91.90;;;;;;5036298;28;20212;-93
2022/02/21 02:17:25;;;;;;;10.40;3.63;;;5.10;91.90;;;;;;5036311;28;20213;-92
2022/02/21 02:19:51;;;;;;;10.60;3.37;;;5.20;91.80;;;;;;5035954;28;20186;-92
2022/02/21 02:22:19;;;;;;;10.57;3.90;;;5.20;91.60;;;;;;5035373;28;20176;-93
2022/02/21 02:24:47;;;;;;;14.77;3.43;;;5.30;91.30;;;;;;5036349;28;20189;-92
2022/02/21 02:27:13;;;;;;;17.60;3.93;;;5.30;91.10;;;;;;5035428;28;20200;-92
2022/02/21 02:29:42;;;;;;;9.20;3.20;;;5.40;90.60;;;;;;5035773;28;20728;-92
2022/02/21 02:32:09;;;;;;;11.77;3.20;;;5.60;89.60;;;;;;5035639;28;20234;-92
2022/02/21 02:34:37;;;;;;;16.20;4.47;;;5.60;88.90;;;;;;5035713;28;20275;-93
2022/02/21 02:37:03;;;;;;;14.20;5.27;;;5.60;88.90;;;;;;5038152;28;20181;-92
2022/02/21 02:39:29;;;;;;;22.67;4.37;;;5.70;88.90;;;;;;5039625;28;20550;-92
2022/02/21 02:41:54;;;;;;;25.23;4.93;;;5.70;89.00;;;;;;5039833;28;20207;-92
2022/02/21 02:44:20;;;;;;;15.17;4.27;;;5.70;88.60;;;;;;5039946;28;20205;-92
2022/02/21 02:46:46;;;;;;;23.40;4.83;;;5.70;88.70;;;;;;5039271;28;20189;-92
2022/02/21 02:49:12;;;;;;;26.60;5.67;;;5.70;88.40;;;;;;5039285;28;20205;-92
2022/02/21 02:51:38;;;;;;;16.40;5.13;;;5.70;87.40;;;;;;5039203;28;20244;-92
2022/02/21 02:54:10;;;;;;;38.00;6.10;;;5.70;87.60;;;;;;5039198;28;20202;-92
2022/02/21 02:56:36;;;;;;;34.70;7.97;;;5.70;86.90;;;;;;5039211;28;20269;-92
2022/02/21 02:59:03;;;;;;;41.63;6.93;;;5.80;85.60;;;;;;5039540;28;20195;-92
2022/02/21 03:01:29;;;;;;;22.77;4.97;;;5.80;84.40;;;;;;5040209;28;20182;-93
2022/02/21 03:03:54;;;;;;;24.93;4.73;;;5.80;82.80;;;;;;5040790;28;20597;-92
2022/02/21 03:06:20;;;;;;;30.90;6.63;;;5.70;83.00;;;;;;5040309;28;20204;-92
2022/02/21 03:08:46;;;;;;;38.87;7.10;;;5.60;82.00;;;;;;5041104;28;20205;-92
2022/02/21 03:11:11;;;;;;;26.33;5.90;;;5.60;83.00;;;;;;5042304;28;20681;-92
2022/02/21 03:13:37;;;;;;;32.77;6.30;;;5.50;83.00;;;;;;5040708;28;20189;-93
2022/02/21 03:16:03;;;;;;;23.27;6.00;;;5.50;82.70;;;;;;5039958;28;20181;-92
2022/02/21 03:18:29;;;;;;;22.37;5.37;;;5.60;83.30;;;;;;5040512;28;20276;-92
2022/02/21 03:20:54;;;;;;;25.80;6.60;;;5.40;84.30;;;;;;5039681;28;20626;-91
2022/02/21 03:23:20;;;;;;;24.77;5.90;;;5.30;85.60;;;;;;5040085;28;20266;-92
2022/02/21 03:25:45;;;;;;;27.30;5.57;;;5.20;86.30;;;;;;5040490;28;20173;-92
2022/02/21 03:28:11;;;;;;;27.43;7.83;;;4.30;87.30;;;;;;5042255;28;20619;-94
2022/02/21 03:30:37;;;;;;;25.13;6.93;;;4.00;88.50;;;;;;5045863;28;20275;-93
2022/02/21 03:33:04;;;;;;;39.60;7.17;;;3.90;89.40;;;;;;5045159;28;20189;-93
2022/02/21 03:35:30;;;;;;;38.43;7.83;;;3.80;89.60;;;;;;5047027;28;20212;-93
2022/02/21 03:37:56;;;;;;;28.90;7.53;;;3.80;89.90;;;;;;5051660;28;20281;-93
2022/02/21 03:40:22;;;;;;;45.57;7.50;;;4.00;89.90;;;;;;5049924;28;20195;-93
2022/02/21 03:42:47;;;;;;;38.17;7.37;;;4.20;89.30;;;;;;5049145;28;20219;-93
2022/02/21 03:45:13;;;;;;;34.63;6.47;;;4.30;89.20;;;;;;5050988;28;20195;-93
2022/02/21 03:47:39;;;;;;;39.10;7.43;;;4.40;88.60;;;;;;5045551;28;20201;-92
2022/02/21 03:50:06;;;;;;;34.83;7.17;;;4.50;88.10;;;;;;5042494;28;20187;-92
2022/02/21 03:52:31;;;;;;;39.57;8.43;;;4.70;86.80;;;;;;5041094;28;20664;-92
2022/02/21 03:54:57;;;;;;;26.87;5.77;;;4.80;86.50;;;;;;5041080;28;20218;-93
2022/02/21 03:57:22;;;;;;;26.40;5.63;;;5.00;84.70;;;;;;5039835;28;20195;-92
2022/02/21 03:59:49;;;;;;;42.87;7.47;;;5.00;84.00;;;;;;5040390;28;20187;-93
2022/02/21 04:02:14;;;;;;;25.97;5.77;;;5.00;84.70;;;;;;5040187;28;20222;-92
2022/02/21 04:04:40;;;;;;;37.20;6.23;;;5.00;83.70;;;;;;5041320;28;20570;-92
2022/02/21 04:07:06;;;;;;;28.07;5.53;;;4.90;83.80;;;;;;5040151;28;20275;-93
2022/02/21 04:09:32;;;;;;;28.20;6.30;;;4.90;83.60;;;;;;5039318;28;20215;-93
2022/02/21 04:11:58;;;;;;;28.47;6.83;;;4.80;83.60;;;;;;5039027;28;20233;-92
2022/02/21 04:14:23;;;;;;;31.50;6.43;;;4.90;82.40;;;;;;5038945;28;20212;-92
2022/02/21 04:16:49;;;;;;;24.17;4.90;;;4.90;82.30;;;;;;5039995;28;20216;-92
2022/02/21 04:19:15;;;;;;;13.73;5.13;;;4.90;82.10;;;;;;5039514;28;20193;-93
2022/02/21 04:21:40;;;;;;;18.83;4.27;;;5.00;82.20;;;;;;5039911;28;20179;-92
2022/02/21 04:24:06;;;;;;;23.37;5.07;;;5.00;82.90;;;;;;5039910;28;20202;-93
2022/02/21 04:26:32;;;;;;;13.43;3.77;;;4.80;82.80;;;;;;5040475;28;20230;-93
2022/02/21 04:28:57;;;;;;;15.70;4.10;;;4.60;83.20;;;;;;5042051;28;20200;-92
2022/02/21 04:31:23;;;;;;;14.93;3.80;;;4.50;83.10;;;;;;5043536;28;20203;-92
2022/02/21 04:33:49;;;;;;;13.17;3.17;;;4.40;83.10;;;;;;5043920;28;20214;-92
2022/02/21 04:36:16;;;;;;;9.43;2.63;;;4.40;81.00;;;;;;5042958;28;20177;-92
2022/02/21 04:38:42;;;;;;;12.23;2.83;;;4.30;80.30;;;;;;5041212;28;20576;-92
2022/02/21 04:41:08;;;;;;;16.63;3.10;;;4.40;79.30;;;;;;5040513;28;20187;-92
2022/02/21 04:43:34;;;;;;;11.20;2.90;;;4.40;80.20;;;;;;5037680;28;20769;-92
2022/02/21 04:46:00;;;;;;;20.50;4.17;;;4.40;80.50;;;;;;5038559;28;20218;-92
2022/02/21 04:48:27;;;;;;;18.67;4.33;;;4.30;80.80;;;;;;5038913;28;20209;-92
2022/02/21 04:50:54;;;;;;;22.80;4.93;;;4.30;82.00;;;;;;5039903;28;20172;-92
2022/02/21 04:53:20;;;;;;;18.70;3.70;;;4.30;82.90;;;;;;5040370;28;20562;-93
2022/02/21 04:55:46;;;;;;;31.63;4.87;;;4.30;83.00;;;;;;5040592;28;20215;-93
2022/02/21 04:58:11;;;;;;;30.97;4.87;;;4.40;83.10;;;;;;5039528;28;20562;-93
2022/02/21 05:00:37;;;;;;;21.20;5.30;;;4.40;83.20;;;;;;5038125;28;20175;-92
2022/02/21 05:03:03;;;;;;;22.10;4.40;;;4.30;83.60;;;;;;5038946;28;20206;-92
2022/02/21 05:05:29;;;;;;;17.77;4.13;;;4.30;83.20;;;;;;5038419;28;20179;-92
2022/02/21 05:07:55;;;;;;;14.50;3.67;;;4.30;83.20;;;;;;5039230;28;20250;-92
2022/02/21 05:10:20;;;;;;;18.00;4.67;;;4.30;83.70;;;;;;5038093;28;20212;-92
2022/02/21 05:12:46;;;;;;;33.57;6.57;;;4.30;84.30;;;;;;5037029;28;20191;-92
2022/02/21 05:15:12;;;;;;;19.00;4.23;;;4.10;85.30;;;;;;5038463;28;20277;-92
2022/02/21 05:17:39;;;;;;;16.20;4.30;;;4.10;85.40;;;;;;5037597;28;20705;-92
2022/02/21 05:20:07;;;;;;;26.40;4.70;;;4.10;85.50;;;;;;5037953;28;20180;-92
2022/02/21 05:22:33;;;;;;;25.27;4.60;;;4.10;85.60;;;;;;5038243;28;20202;-92
2022/02/21 05:24:59;;;;;;;13.87;4.63;;;4.20;84.70;;;;;;5039043;28;20183;-93
2022/02/21 05:27:25;;;;;;;24.03;5.33;;;4.30;84.30;;;;;;5039059;28;20258;-92
2022/02/21 05:29:50;;;;;;;13.47;4.10;;;4.40;84.00;;;;;;5037778;28;20179;-92
2022/02/21 05:32:16;;;;;;;14.77;4.30;;;4.40;84.00;;;;;;5037493;28;20179;-92
2022/02/21 05:34:42;;;;;;;22.83;5.00;;;4.50;83.20;;;;;;5039205;28;20250;-92
2022/02/21 05:37:07;;;;;;;17.77;5.47;;;4.50;83.10;;;;;;5038344;28;20175;-92
2022/02/21 05:39:34;;;;;;;18.77;4.83;;;4.50;82.10;;;;;;5038816;28;20233;-92
2022/02/21 05:41:59;;;;;;;35.30;5.33;;;4.50;81.40;;;;;;5037362;28;20262;-92
2022/02/21 05:44:25;;;;;;;23.53;6.13;;;4.50;82.00;;;;;;5038903;28;20657;-92
2022/02/21 05:46:51;;;;;;;17.03;4.10;;;4.50;81.90;;;;;;5037452;28;20172;-92
2022/02/21 05:49:16;;;;;;;12.80;3.23;;;4.50;80.70;;;;;;5037362;28;20192;-91
2022/02/21 05:51:42;;;;;;;13.90;4.00;;;4.50;81.30;;;;;;5038313;28;20176;-93
2022/02/21 05:54:07;;;;;;;17.93;4.33;;;4.30;82.10;;;;;;5036635;28;20201;-92
2022/02/21 05:56:33;;;;;;;16.57;3.53;;;4.20;82.60;;;;;;5037266;28;20525;-92
2022/02/21 05:58:59;;;;;;;17.13;3.63;;;4.20;81.50;;;;;;5036815;28;20188;-92
2022/02/21 06:01:24;;;;;;;27.67;4.83;;;4.10;81.90;;;;;;5036987;28;20673;-92
2022/02/21 06:03:50;;;;;;;9.60;3.17;;;4.10;81.80;;;;;;5037554;28;20172;-93
2022/02/21 06:06:15;;;;;;;10.83;3.63;;;4.20;81.40;;;;;;5037366;28;20179;-93
2022/02/21 06:08:41;;;;;;;17.17;3.83;;;4.10;82.10;;;;;;5037285;28;20203;-92
2022/02/21 06:11:07;;;;;;;15.03;3.57;;;4.10;81.90;;;;;;5037702;28;20192;-92
2022/02/21 06:13:33;;;;;;;25.57;4.37;;;4.00;84.20;;;;;;5040773;28;20262;-92
2022/02/21 06:15:59;;;;;;;12.97;3.37;;;3.90;84.90;;;;;;5039898;28;20248;-92
2022/02/21 06:18:25;;;;;;;18.53;4.07;;;3.90;85.00;;;;;;5040050;28;20267;-92
2022/02/21 06:20:50;;;;;;;22.63;5.60;;;3.90;85.90;;;;;;5040279;28;20230;-92
2022/02/21 06:23:16;;;;;;;15.57;3.97;;;3.80;86.50;;;;;;5041460;28;20176;-92
2022/02/21 06:25:43;;;;;;;22.03;5.67;;;3.90;86.00;;;;;;5040344;28;20332;-92
2022/02/21 06:28:10;;;;;;;23.93;4.37;;;3.90;85.40;;;;;;5040672;28;20373;-92
2022/02/21 06:30:36;;;;;;;12.83;4.40;;;4.00;85.00;;;;;;5040183;28;20183;-92
2022/02/21 06:33:02;;;;;;;15.20;4.47;;;4.10;84.50;;;;;;5040547;28;20554;-92
2022/02/21 06:35:27;;;;;;;17.03;5.10;;;4.00;85.10;;;;;;5039903;28;20208;-92
2022/02/21 06:37:54;;;;;;;18.27;4.70;;;3.90;85.30;;;;;;5040015;28;20196;-92
2022/02/21 06:40:21;;;;;;;26.30;4.27;;;3.80;85.70;;;;;;5040753;28;20225;-92
2022/02/21 06:42:48;;;;;;;15.13;3.90;;;3.90;85.60;;;;;;5041923;28;20533;-93
2022/02/21 06:45:16;;;;;;;23.53;4.40;;;3.80;85.40;;;;;;5041337;28;20180;-93
2022/02/21 06:47:42;;;;;;;20.63;4.27;;;3.90;85.10;;;;;;5043639;28;20204;-92
2022/02/21 06:50:20;;;;;;;26.10;5.50;;;3.90;85.40;;;;;;5044768;28;20279;-92
2022/02/21 06:52:46;;;;;;;28.93;5.03;;;4.00;85.10;;;;;;5039567;28;20176;-92
2022/02/21 06:55:13;;;;;;;22.10;4.40;;;3.90;85.10;;;;;;5039580;28;20294;-91
2022/02/21 06:57:43;;;;;;;27.03;4.83;;;3.70;86.60;;;;;;5040369;28;20286;-91
2022/02/21 07:00:09;;;;;;;12.77;4.50;;;3.70;86.60;;;;;;5039471;28;20176;-92
2022/02/21 07:02:35;;;;;;;13.03;4.10;;;3.60;86.90;;;;;;5039899;28;20225;-92
2022/02/21 07:05:00;;;;;;;19.17;4.23;;;3.60;86.90;;;;;;5039252;28;20198;-92
2022/02/21 07:07:26;;;;;;;10.80;3.33;;;3.60;87.10;;;;;;5038894;28;20202;-92
2022/02/21 07:09:51;;;;;;;17.23;4.00;;;3.50;87.30;;;;;;5039783;28;20269;-92
2022/02/21 07:12:17;;;;;;;8.73;3.53;;;3.60;87.00;;;;;;5041119;28;20184;-92
2022/02/21 07:14:43;;;;;;;21.77;5.20;;;3.60;87.10;;;;;;5039813;28;20213;-92
2022/02/21 07:17:09;;;;;;;15.87;4.43;;;3.70;86.90;;;;;;5039021;28;20200;-92
2022/02/21 07:19:34;;;;;;;15.03;5.07;;;3.80;86.90;;;;;;5038902;28;20186;-92
2022/02/21 07:22:00;;;;;;;13.03;3.77;;;3.80;87.20;;;;;;5038467;28;20175;-92
2022/02/21 07:24:27;;;;;;;10.23;4.23;;;3.80;86.30;;;;;;5038330;28;20214;-92
2022/02/21 07:26:53;;;;;;;10.73;4.37;;;3.80;87.00;;;;;;5038408;28;20183;-91
2022/02/21 07:29:18;;;;;;;14.73;3.80;;;3.70;87.20;;;;;;5038414;28;20286;-92
2022/02/21 07:31:44;;;;;;;13.93;4.20;;;3.70;88.00;;;;;;5039169;28;20184;-91
2022/02/21 07:34:09;;;;;;;18.07;4.30;;;3.60;88.00;;;;;;5038224;28;20207;-92
2022/02/21 07:36:35;;;;;;;23.73;5.63;;;3.70;88.20;;;;;;5038733;28;20176;-92
2022/02/21 07:39:01;;;;;;;11.17;3.93;;;3.70;87.90;;;;;;5038298;28;20200;-91
2022/02/21 07:41:28;;;;;;;20.03;4.73;;;3.60;87.70;;;;;;5038678;28;20183;-92
2022/02/21 07:43:54;;;;;;;20.47;5.60;;;3.70;88.10;;;;;;5038504;28;20177;-91
2022/02/21 07:46:20;;;;;;;14.73;4.03;;;3.50;88.50;;;;;;5038201;28;20328;-92
2022/02/21 07:48:45;;;;;;;15.30;4.80;;;3.10;89.20;;;;;;5038694;28;20202;-92
2022/02/21 07:51:11;;;;;;;7.47;4.43;;;3.00;90.30;;;;;;5039354;28;20193;-92
2022/02/21 07:53:36;;;;;;;15.57;4.93;;;2.50;90.90;;;;;;5039214;28;20243;-93
2022/02/21 07:56:02;;;;;;;11.20;3.53;;;2.30;91.70;;;;;;5039669;28;20181;-93
2022/02/21 07:58:28;;;;;;;13.37;3.60;;;2.10;92.00;;;;;;5041135;28;20282;-93
2022/02/21 08:00:54;;;;;;;11.03;3.70;;;1.70;92.30;;;;;;5040699;28;20167;-93
2022/02/21 08:03:19;;;;;;;12.37;4.67;;;1.50;92.50;;;;;;5041141;28;20227;-93
2022/02/21 08:05:45;;;;;;;10.40;3.87;;;1.30;92.90;;;;;;5040881;28;20180;-92
2022/02/21 08:08:11;;;;;;;13.00;4.10;;;1.20;93.20;;;;;;5038279;28;20274;-91
2022/02/21 08:10:36;;;;;;;15.90;5.17;;;1.30;93.30;;;;;;5038860;28;20176;-92
2022/02/21 08:13:02;;;;;;;10.40;4.27;;;1.30;93.40;;;;;;5038151;28;20186;-92
2022/02/21 08:15:28;;;;;;;12.80;5.00;;;1.40;93.50;;;;;;5041651;28;20312;-93
2022/02/21 08:17:54;;;;;;;15.50;3.80;;;1.50;93.60;;;;;;5046710;28;20297;-93
2022/02/21 08:20:24;;;;;;;11.60;3.90;;;1.40;93.60;;;;;;5041041;28;20223;-91
2022/02/21 08:22:52;;;;;;;20.30;4.80;;;1.20;93.60;;;;;;5039894;28;20174;-93
2022/02/21 08:25:18;;;;;;;6.73;3.10;;;1.30;93.80;;;;;;5040838;28;20181;-93
2022/02/21 08:27:45;;;;;;;9.63;3.73;;;1.30;93.90;;;;;;5045385;28;20199;-93
2022/02/21 08:30:17;;;;;;;12.07;3.57;;;1.40;93.90;;;;;;5043145;28;20245;-93
2022/02/21 08:32:43;;;;;;;12.47;3.40;;;1.40;93.90;;;;;;5041874;28;20168;-92
2022/02/21 08:35:10;;;;;;;7.90;2.67;;;1.30;93.90;;;;;;5038225;28;20212;-92
2022/02/21 08:37:36;;;;;;;8.93;3.60;;;1.30;93.90;;;;;;5037792;28;20192;-92
2022/02/21 08:40:03;;;;;;;12.40;4.07;;;1.30;94.00;;;;;;5041210;28;20546;-92
2022/02/21 08:42:28;;;;;;;6.27;3.30;;;1.30;94.00;;;;;;5040191;28;20182;-93
2022/02/21 08:44:54;;;;;;;12.53;4.00;;;1.40;94.10;;;;;;5040569;28;20180;-93
2022/02/21 08:47:21;;;;;;;8.33;3.10;;;1.30;94.00;;;;;;5041447;28;20335;-93
2022/02/21 08:49:47;;;;;;;10.40;3.10;;;1.40;94.10;;;;;;5043198;28;20241;-92
2022/02/21 08:52:12;;;;;;;5.53;3.10;;;1.30;94.00;;;;;;5041224;28;20195;-93
2022/02/21 08:54:38;;;;;;;10.27;3.40;;;1.30;94.00;;;;;;5046103;28;20206;-93
2022/02/21 08:57:05;;;;;;;9.50;3.57;;;1.30;94.10;;;;;;5048376;28;20181;-93
2022/02/21 08:59:32;;;;;;;8.13;3.50;;;1.30;94.20;;;;;;5046288;28;20183;-93
2022/02/21 09:01:58;;;;;;;10.27;3.30;;;1.30;94.20;;;;;;5041716;28;20182;-93
2022/02/21 09:04:27;;;;;;;12.63;3.40;;;1.50;94.30;;;;;;5044053;28;20211;-93
2022/02/21 09:06:52;;;;;;;11.13;3.57;;;1.70;94.30;;;;;;5039786;28;20207;-93
2022/02/21 09:09:18;;;;;;;22.77;4.70;;;2.00;94.40;;;;;;5039713;28;20214;-92
2022/02/21 09:11:45;;;;;;;18.87;4.87;;;2.30;94.20;;;;;;5038823;28;20702;-91
2022/02/21 09:14:11;;;;;;;11.30;3.83;;;2.50;94.00;;;;;;5036545;28;20203;-91
2022/02/21 09:16:36;;;;;;;14.97;4.40;;;2.60;93.70;;;;;;5036719;28;20198;-91
2022/02/21 09:19:03;;;;;;;23.30;5.33;;;2.80;93.40;;;;;;5036830;28;20202;-92
2022/02/21 09:21:28;;;;;;;17.70;5.20;;;2.80;93.20;;;;;;5039599;28;20179;-92
2022/02/21 09:23:54;;;;;;;30.03;5.23;;;2.80;93.00;;;;;;5036078;28;20256;-91
2022/02/21 09:26:20;;;;;;;24.10;4.93;;;2.90;92.90;;;;;;5035996;28;20220;-92
2022/02/21 09:28:46;;;;;;;22.33;5.90;;;3.00;92.80;;;;;;5035794;28;20234;-92
2022/02/21 09:31:12;;;;;;;15.57;4.03;;;3.10;92.60;;;;;;5036128;28;20270;-91
2022/02/21 09:33:37;;;;;;;22.83;4.63;;;3.20;92.40;;;;;;5036790;28;20274;-92
2022/02/21 09:36:03;;;;;;;17.93;5.33;;;3.30;92.00;;;;;;5036137;28;20180;-92
2022/02/21 09:38:30;;;;;;;11.50;4.50;;;3.40;91.80;;;;;;5045569;28;20191;-93
2022/02/21 09:40:58;;;;;;;31.00;6.43;;;3.50;91.50;;;;;;5054949;28;20205;-93
2022/02/21 09:43:26;;;;;;;23.13;5.50;;;3.60;91.30;;;;;;5051782;28;20169;-94
2022/02/21 09:46:05;;;;;;;18.40;5.43;;;3.80;91.00;;;;;;5049329;28;20180;-93
2022/02/21 09:48:32;;;;;;;18.30;4.33;;;3.90;90.70;;;;;;5048760;28;20208;-94
2022/02/21 09:51:00;;;;;;;20.50;5.67;;;3.90;90.90;;;;;;5036421;28;20203;-91
2022/02/21 09:53:30;;;;;;;28.07;5.30;;;4.00;90.50;;;;;;5036309;28;20191;-91
2022/02/21 09:55:56;;;;;;;13.47;4.30;;;4.10;90.10;;;;;;5035437;28;20203;-92
2022/02/21 09:58:22;;;;;;;18.17;5.60;;;4.20;90.10;;;;;;5035694;28;20203;-90
2022/02/21 10:00:49;;;;;;;20.27;4.27;;;4.30;89.60;;;;;;5036376;28;20176;-92
2022/02/21 10:03:38;;;;;;;11.93;4.33;;;4.30;88.70;;;;;;5035502;28;20638;-90
2022/02/21 10:06:24;;;;;;;18.20;5.23;;;4.50;88.00;;;;;;5035403;28;20172;-90
2022/02/21 10:09:09;;;;;;;23.97;5.63;;;4.60;88.10;;;;;;5036763;28;20206;-92
2022/02/21 10:11:45;;;;;;;20.37;5.87;;;4.70;87.90;;;;;;5036053;28;20180;-91
2022/02/21 10:14:15;;;;;;;23.23;4.67;;;4.80;87.40;;;;;;5036301;28;20202;-92
2022/02/21 10:16:49;;;;;;;14.03;4.00;;;4.80;86.80;;;;;;5035815;28;20560;-92
2022/02/21 10:19:22;;;;;;;14.77;4.17;;;4.80;86.20;;;;;;5035996;28;20215;-91
2022/02/21 10:22:01;;;;;;;15.77;3.23;;;4.90;86.80;;;;;;5035240;28;20191;-92
2022/02/21 10:24:48;;;;;;;19.93;4.83;;;5.10;85.40;;;;;;5036312;28;20207;-92
2022/02/21 10:27:19;;;;;;;14.83;4.43;;;5.00;86.20;;;;;;5035530;28;20185;-90
2022/02/21 10:29:49;;;;;;;20.00;5.37;;;5.00;85.80;;;;;;5035358;28;20182;-91
2022/02/21 10:32:34;;;;;;;15.93;3.57;;;5.00;86.70;;;;;;5035616;28;20265;-91
2022/02/21 10:35:12;;;;;;;20.83;3.80;;;5.00;85.40;;;;;;5035966;28;20752;-92
2022/02/21 10:37:45;;;;;;;5.93;2.67;;;5.00;85.30;;;;;;5035582;28;20197;-92
2022/02/21 10:40:17;;;;;;;16.33;4.20;;;5.10;85.30;;;;;;5035658;28;20192;-91
2022/02/21 10:42:44;;;;;;;12.27;3.90;;;5.10;85.80;;;;;;5035357;28;20174;-91
2022/02/21 10:45:18;;;;;;;12.00;3.43;;;5.10;84.90;;;;;;5035413;28;20184;-91
2022/02/21 10:48:01;;;;;;;18.60;4.70;;;5.10;85.30;;;;;;5053318;28;20197;-90
2022/02/21 10:50:29;;;;;;;19.67;4.97;;;5.00;85.60;;;;;;5035169;28;20633;-91
2022/02/21 10:52:54;;;;;;;16.83;4.67;;;5.00;86.70;;;;;;5035179;28;20185;-91
2022/02/21 10:55:20;;;;;;;17.63;4.63;;;4.90;87.10;;;;;;5053234;28;20206;-91
2022/02/21 10:57:47;;;;;;;17.67;4.60;;;4.90;87.00;;;;;;5037207;28;20195;-90
2022/02/21 11:00:13;;;;;;;17.13;4.60;;;4.90;86.50;;;;;;5038761;28;20648;-91
2022/02/21 11:02:42;;;;;;;8.03;2.97;;;4.90;86.60;;;;;;5038603;28;20176;-90
2022/02/21 11:05:10;;;;;;;10.43;4.27;;;4.80;86.30;;;;;;5038654;28;20672;-90
2022/02/21 11:07:38;;;;;;;9.13;3.23;;;4.80;87.20;;;;;;5056450;28;20241;-92
2022/02/21 11:10:05;;;;;;;10.80;4.90;;;4.70;87.00;;;;;;5038695;28;20180;-92
2022/02/21 11:12:35;;;;;;;6.40;2.90;;;4.70;87.30;;;;;;5038335;28;20176;-91
2022/02/21 11:15:02;;;;;;;10.87;3.63;;;4.70;87.30;;;;;;5039701;28;20204;-92
2022/02/21 11:17:29;;;;;;;12.47;4.40;;;4.70;87.50;;;;;;5056414;28;20763;-91
2022/02/21 11:19:54;;;;;;;6.63;2.80;;;4.70;87.90;;;;;;5038647;28;20187;-91
2022/02/21 11:22:21;;;;;;;10.97;3.50;;;4.70;87.90;;;;;;5038265;28;20202;-90
2022/02/21 11:25:20;;;;;;;12.70;3.43;;;4.60;87.50;;;;;;5038541;28;20185;-91
2022/02/21 11:27:56;;;;;;;10.63;3.20;;;4.60;87.40;;;;;;5037491;28;20209;-90
2022/02/21 11:30:24;;;;;;;13.83;3.93;;;4.60;87.60;;;;;;5038178;28;20205;-90
2022/02/21 11:33:07;;;;;;;8.67;3.00;;;4.60;88.30;;;;;;5038088;28;20203;-90
2022/02/21 11:35:35;;;;;;;5.67;3.53;;;4.60;88.20;;;;;;5038200;28;20196;-91
2022/02/21 11:38:20;;;;;;;13.23;4.30;;;4.60;87.90;;;;;;5037966;28;20196;-90
2022/02/21 11:41:01;;;;;;;12.70;3.47;;;4.60;88.40;;;;;;5038520;28;20171;-90
2022/02/21 11:43:37;;;;;;;9.87;3.40;;;4.50;87.90;;;;;;5055590;28;20162;-90
2022/02/21 11:46:08;;;;;;;16.63;3.03;;;4.40;88.00;;;;;;5055469;28;20643;-90
2022/02/21 11:48:54;;;;;;;3.53;2.53;;;4.40;88.60;;;;;;5055852;28;20203;-91
2022/02/21 11:51:37;;;;;;;10.03;3.70;;;4.30;88.60;;;;;;5038710;28;20180;-91
2022/02/21 11:54:09;;;;;;;6.63;3.17;;;4.30;89.00;;;;;;5037503;28;20260;-90
2022/02/21 11:56:50;;;;;;;6.03;3.33;;;4.30;89.60;;;;;;5037498;28;20176;-90
2022/02/21 11:59:24;;;;;;;9.37;3.63;;;4.20;89.70;;;;;;5037624;28;20678;-89
2022/02/21 12:02:17;;;;;;;11.43;3.80;;;4.10;89.80;;;;;;5037306;28;20171;-90
2022/02/21 12:04:55;;;;;;;11.40;3.30;;;4.10;90.20;;;;;;5055233;28;20152;-90
2022/02/21 12:07:34;;;;;;;9.57;3.40;;;4.10;89.90;;;;;;5037299;28;20199;-90
2022/02/21 12:10:22;;;;;;;10.80;4.60;;;4.10;89.80;;;;;;5036928;28;20247;-91
2022/02/21 12:13:21;;;;;;;8.40;3.17;;;4.20;90.50;;;;;;5037436;28;20168;-90
2022/02/21 12:16:01;;;;;;;2.67;2.40;;;4.10;90.50;;;;;;4985342;28;20219;-90
2022/02/21 12:18:41;;;;;;;5.17;3.00;;;4.00;89.80;;;;;;5037873;28;20249;-91
2022/02/21 12:21:26;;;;;;;6.63;3.10;;;4.10;90.00;;;;;;5037233;28;20205;-90
2022/02/21 12:24:00;;;;;;;8.70;2.80;;;4.10;90.00;;;;;;5037560;28;20625;-91
2022/02/21 12:26:40;;;;;;;13.03;4.10;;;4.10;90.50;;;;;;5037070;28;20262;-90
2022/02/21 12:29:15;;;;;;;15.43;3.40;;;4.00;90.30;;;;;;5037493;28;20199;-91
2022/02/21 12:32:05;;;;;;;7.80;3.27;;;4.00;90.20;;;;;;5036898;28;20579;-91
2022/02/21 12:34:36;;;;;;;5.33;2.53;;;4.00;90.40;;;;;;5036269;28;20242;-91
2022/02/21 12:37:04;;;;;;;5.10;3.30;;;3.90;90.20;;;;;;5036807;28;20176;-91
2022/02/21 12:39:34;;;;;;;13.83;4.13;;;3.90;90.40;;;;;;5037150;28;20172;-91
2022/02/21 12:42:00;;;;;;;8.33;3.93;;;3.80;90.50;;;;;;5037714;28;20182;-92
2022/02/21 12:44:26;;;;;;;4.97;3.53;;;3.80;90.70;;;;;;5036819;28;20646;-90
2022/02/21 12:46:57;;;;;;;5.23;4.07;;;3.80;90.90;;;;;;5036748;28;20176;-91
2022/02/21 12:49:29;;;;;;;4.97;3.50;;;3.80;91.10;;;;;;5036699;28;20168;-91
2022/02/21 12:52:07;;;;;;;4.30;3.90;;;3.70;90.40;;;;;;5036874;28;20179;-91
2022/02/21 12:54:48;;;;;;;3.50;3.27;;;3.70;90.90;;;;;;5036315;28;20199;-91